MDLR/LRM METAR and TAF weather

Enter ICAO airport designator
Station Type Date Time Source
MDLR METAR 2019/04/20 22:00 UTC NOAA

MDLR 202200Z 12010KT 9999 SCT020 28/21 Q1015


Station Type Date Time Source
MDLR Decoded METAR 2019/04/20 22:00 UTC NOAA

La Romana International Airport, Dominican Republic (MDLR) 18-25N 068-57W
Apr 20, 2019 - 06:00 PM EDT / 2019.04.20 2200 UTC
Wind: from the ESE (120 degrees) at 12 MPH (10 KT):0
Visibility: greater than 7 mile(s):0
Sky conditions: partly cloudy
Temperature: 82 F (28 C)
Dew Point: 69 F (21 C)
Relative Humidity: 65%
Pressure (altimeter): 29.97 in. Hg (1015 hPa)
ob: MDLR 202200Z 12010KT 9999 SCT020 28/21 Q1015
cycle: 22

Station Type Date Time Source
MDLR TAF 2019/04/20 18:33 UTC NOAA

TAF MDLR 201600Z 2018/2118 10014KT 9999 SCT020 PROB30 2017/2022 8000 -SH BKN018
BECMG 2018/2020 09008KT

Example: see airport list